Norway, MI (49870)

12:48 AM CST on Φεβρουάριος 06, 2016 (GMT -0600)
Downtown | | Change Station
CLOSE
Current Station
Personal Weather Stations
Location: Norway, MI
Elevation: 942 ft
Nearby Weather Stations

Elev 942 ft 45.79 °N, 87.91 °W | Updated 8 seconds ago

Νεφοσκεπής
Νεφοσκεπής
26.3 ° F
Feels Like 19 ° F
N
6.9
Ανεμος Μεταβλητός Ανεμος from ΝΔ
Gusts 6.9 mph

Σήμερα
High -- | Low -- ° F
--% Chance of Precip.
Yesterday
High -- | Low -- ° F
Precip. -- in
Ατμοσφαιρική Πίεση 30.07 in
Ορατότητα 9.0 Μίλια
Σύννεφα Νεφελώδης 2400 ft
Νεφοσκεπής 3500 ft
Δείκτης Ψυχρότητας 19 ° F
Σημείο Δρόσου 15 ° F
Υγρασία 63%
Rainfall 0.00 in
Snow Depth Not available.
7:07 AM 5:04 PM
Μηνίσκος, 7% visible
SPECI KIMT 060644Z AUTO 27008KT 9SM BKN024 OVC035 M04/M10 A3007 RMK AO2 T10391100 TSNO
Ατμοσφαιρική Πίεση 30.07 in
Ορατότητα 9.0 Μίλια
Σύννεφα Νεφελώδης 2400 ft
Νεφοσκεπής 3500 ft
Δείκτης Ψυχρότητας 19 ° F
Σημείο Δρόσου 15 ° F
Υγρασία 63%
Rainfall 0.00 in
Snow Depth Not available.
7:07 AM 5:04 PM
Μηνίσκος, 7% visible
SPECI KIMT 060644Z AUTO 27008KT 9SM BKN024 OVC035 M04/M10 A3007 RMK AO2 T10391100 TSNO

10-Day Weather Forecast

Almanac

Αστρονομία

Feb. 06, 2016 Rise Set
Actual Time
Civil Twilight
Nautical Twilight
Astronomical Twilight
Moon
Length Of Visible Light
Διάρκεια ημέρας
Tomorrow will be .
, % of the Moon is Illuminated

Today's Extremes

State Highs State Lows

Community

WunderPhotos

Upload Photos

1,890,932 photos uploaded!

WunderBlog® & News

Nearby

Air Quality

  Air Quality AQ Index Pollutant
Not available.

Snow Depth

Station Depth Elevation

Earthquake Activity

City Distance Mag. Time & Date
Minimum magnitude displayed is 2.5.

Coastal Water Temperatures

Τοποθεσία Θερμοκρασία

Stations

Nearby Weather Stations

Station Location Temp Δείκτης Ψυχρότητας Σημείο Δρόσου Υγρασία Ανεμος Precip. Elev Ενημερώθηκε Type
                   

Watches & Warnings

There are currently no watches in effect.